createdAt,value
2022-10-01T00:00:55.938Z,45.87
2022-10-01T00:03:25.244Z,54.13
2022-10-01T00:06:13.212Z,49.97
2022-10-01T00:08:42.040Z,50.07
2022-10-01T00:11:14.522Z,57.90
2022-10-01T00:13:43.140Z,49.10
2022-10-01T00:16:12.571Z,45.73
2022-10-01T00:18:42.209Z,47.17
2022-10-01T00:21:11.109Z,44.77
2022-10-01T00:23:38.356Z,44.77
2022-10-01T00:26:25.650Z,46.53
2022-10-01T00:28:57.596Z,46.57
2022-10-01T00:31:25.206Z,44.23
2022-10-01T00:33:53.827Z,42.00
2022-10-01T00:36:20.882Z,44.23
2022-10-01T00:38:48.284Z,48.40
2022-10-01T00:41:16.606Z,49.23
2022-10-01T00:43:50.621Z,46.50
2022-10-01T00:46:25.166Z,49.37
2022-10-01T00:49:13.123Z,43.27
2022-10-01T00:51:46.979Z,46.53
2022-10-01T00:54:17.559Z,58.40
2022-10-01T00:56:45.180Z,80.73
2022-10-01T00:59:12.986Z,71.83
2022-10-01T01:01:39.765Z,55.93
2022-10-01T01:04:16.595Z,53.27
2022-10-01T01:06:46.283Z,44.17
2022-10-01T01:09:13.142Z,50.83
2022-10-01T01:11:48.128Z,45.70
2022-10-01T01:14:45.682Z,44.10
2022-10-01T01:17:21.417Z,49.43
2022-10-01T01:19:53.999Z,47.00
2022-10-01T01:22:24.508Z,46.67
2022-10-01T01:25:01.051Z,48.60
2022-10-01T01:27:57.807Z,46.10
2022-10-01T01:30:24.763Z,46.33
2022-10-01T01:33:03.189Z,54.73
2022-10-01T01:35:34.758Z,54.87
2022-10-01T01:38:07.777Z,55.73
2022-10-01T01:40:37.507Z,48.70
2022-10-01T01:43:08.423Z,45.73
2022-10-01T01:45:40.157Z,44.90
2022-10-01T01:48:09.941Z,49.70
2022-10-01T01:50:53.448Z,43.47
2022-10-01T01:53:20.328Z,46.73
2022-10-01T01:55:49.279Z,46.93
2022-10-01T01:58:18.793Z,47.73
2022-10-01T02:00:52.454Z,49.17
2022-10-01T02:03:25.538Z,49.40
2022-10-01T02:06:05.380Z,44.60
2022-10-01T02:08:59.369Z,47.57
2022-10-01T02:11:30.536Z,45.87
2022-10-01T02:14:12.405Z,45.23
2022-10-01T02:16:56.035Z,38.47
2022-10-01T02:19:44.450Z,34.57
2022-10-01T02:22:37.176Z,45.03
2022-10-01T02:25:05.499Z,44.13
2022-10-01T02:27:40.955Z,39.87
2022-10-01T02:30:09.547Z,44.73
2022-10-01T02:32:39.262Z,45.40
2022-10-01T02:35:12.435Z,42.43
2022-10-01T02:37:41.341Z,41.77
2022-10-01T02:40:13.793Z,38.27
2022-10-01T02:42:47.058Z,39.90
2022-10-01T02:45:18.297Z,44.90
2022-10-01T02:47:49.676Z,46.30
2022-10-01T02:50:16.412Z,47.70
2022-10-01T02:52:49.598Z,48.50
2022-10-01T02:55:33.627Z,44.53
2022-10-01T02:58:00.288Z,40.30
2022-10-01T03:00:27.213Z,43.30
2022-10-01T03:02:54.413Z,43.27
2022-10-01T03:05:21.950Z,43.20
2022-10-01T03:07:49.186Z,41.53
2022-10-01T03:10:16.260Z,46.23
2022-10-01T03:12:46.390Z,45.07
2022-10-01T03:15:19.274Z,42.27
2022-10-01T03:17:50.212Z,40.93
2022-10-01T03:20:16.925Z,39.90
2022-10-01T03:22:45.940Z,41.43
2022-10-01T03:25:13.257Z,47.20
2022-10-01T03:27:39.916Z,41.73
2022-10-01T03:30:07.344Z,40.43
2022-10-01T03:32:34.293Z,39.40
2022-10-01T03:35:01.445Z,38.70
2022-10-01T03:37:28.107Z,39.00
2022-10-01T03:39:54.788Z,40.83
2022-10-01T03:42:21.505Z,42.70
2022-10-01T03:44:48.591Z,38.10
2022-10-01T03:47:15.328Z,43.03
2022-10-01T03:49:41.987Z,41.30
2022-10-01T03:52:08.739Z,41.87
2022-10-01T03:54:35.448Z,38.33
2022-10-01T03:57:02.125Z,42.33
2022-10-01T03:59:29.555Z,41.73
2022-10-01T04:01:56.362Z,43.27
2022-10-01T04:04:23.159Z,38.03
2022-10-01T04:06:49.830Z,40.37
2022-10-01T04:09:16.530Z,40.10
2022-10-01T04:11:43.469Z,41.07
2022-10-01T04:14:10.236Z,41.10
2022-10-01T04:16:37.063Z,41.93
2022-10-01T04:19:04.890Z,46.43
2022-10-01T04:21:31.946Z,44.77
2022-10-01T04:23:59.694Z,39.30
2022-10-01T04:26:27.051Z,39.00
2022-10-01T04:28:53.757Z,43.13
2022-10-01T04:31:26.687Z,37.63
2022-10-01T04:33:56.159Z,37.30
2022-10-01T04:36:24.019Z,38.40
2022-10-01T04:38:53.986Z,42.67
2022-10-01T04:41:23.954Z,41.30
2022-10-01T04:43:50.812Z,45.57
2022-10-01T04:46:17.750Z,39.27
2022-10-01T04:48:44.518Z,41.87
2022-10-01T04:51:11.210Z,45.30
2022-10-01T04:53:37.875Z,45.07
2022-10-01T04:56:04.848Z,48.30
2022-10-01T04:58:31.775Z,46.37
2022-10-01T05:01:01.837Z,46.13
2022-10-01T05:03:29.164Z,47.40
2022-10-01T05:05:55.888Z,44.67
2022-10-01T05:08:23.179Z,42.80
2022-10-01T05:10:49.888Z,44.00
2022-10-01T05:13:16.563Z,44.30
2022-10-01T05:15:43.467Z,48.17
2022-10-01T05:18:10.114Z,45.33
2022-10-01T05:20:37.824Z,47.73
2022-10-01T05:23:04.957Z,42.67
2022-10-01T05:25:31.801Z,45.33
2022-10-01T05:28:05.714Z,46.57
2022-10-01T05:30:33.815Z,46.87
2022-10-01T05:33:03.599Z,55.30
2022-10-01T05:35:30.788Z,43.43
2022-10-01T05:37:59.481Z,44.87
2022-10-01T05:40:28.743Z,44.87
2022-10-01T05:42:56.918Z,48.33
2022-10-01T05:45:24.344Z,48.87
2022-10-01T05:48:00.845Z,48.60
2022-10-01T05:50:31.330Z,46.67
2022-10-01T05:52:59.315Z,46.63
2022-10-01T05:55:26.129Z,48.53
2022-10-01T05:57:57.727Z,47.87
2022-10-01T06:00:28.060Z,46.23
2022-10-01T06:02:56.015Z,49.13
2022-10-01T06:05:25.997Z,49.97
2022-10-01T06:07:53.663Z,48.00
2022-10-01T06:10:24.603Z,50.27
2022-10-01T06:12:51.863Z,49.47
2022-10-01T06:15:18.699Z,53.77
2022-10-01T06:17:48.091Z,51.33
2022-10-01T06:20:21.951Z,47.50
2022-10-01T06:22:56.993Z,45.90
2022-10-01T06:25:25.139Z,51.37
2022-10-01T06:27:58.066Z,47.00
2022-10-01T06:30:30.871Z,52.60
2022-10-01T06:33:26.918Z,56.80
2022-10-01T06:35:53.802Z,53.53
2022-10-01T06:38:23.625Z,51.23
2022-10-01T06:41:00.717Z,45.83
2022-10-01T06:43:31.422Z,46.67
2022-10-01T06:46:04.362Z,47.23
2022-10-01T06:48:36.598Z,48.47
2022-10-01T06:51:03.770Z,49.90
2022-10-01T06:53:30.600Z,48.93
2022-10-01T06:55:57.769Z,50.53
2022-10-01T06:58:28.522Z,45.93
2022-10-01T07:01:01.533Z,48.57
2022-10-01T07:03:28.965Z,45.53
2022-10-01T07:06:02.438Z,42.93
2022-10-01T07:08:29.278Z,37.77
2022-10-01T07:11:02.523Z,41.40
2022-10-01T07:13:29.517Z,39.87
2022-10-01T07:15:56.518Z,35.70
2022-10-01T07:18:23.758Z,38.60
2022-10-01T07:20:53.885Z,34.93
2022-10-01T07:23:22.016Z,39.77
2022-10-01T07:25:48.691Z,38.63
2022-10-01T07:28:21.082Z,33.13
2022-10-01T07:31:01.223Z,32.63
2022-10-01T07:33:28.292Z,32.30
2022-10-01T07:35:55.397Z,32.43
2022-10-01T07:38:22.131Z,32.97
2022-10-01T07:40:54.785Z,30.73
2022-10-01T07:43:22.514Z,33.33
2022-10-01T07:45:58.183Z,29.77
2022-10-01T07:48:29.529Z,28.57
2022-10-01T07:50:57.975Z,21.43
2022-10-01T07:53:26.213Z,23.87
2022-10-01T07:55:53.657Z,25.30
2022-10-01T07:58:24.213Z,25.90
2022-10-01T08:00:55.940Z,22.00
2022-10-01T08:03:22.821Z,22.23
2022-10-01T08:05:49.877Z,23.17
2022-10-01T08:08:16.553Z,21.57
2022-10-01T08:10:43.320Z,20.23
2022-10-01T08:13:16.165Z,23.37
2022-10-01T08:15:44.678Z,21.27
2022-10-01T08:18:12.073Z,23.93
2022-10-01T08:20:39.780Z,24.80
2022-10-01T08:23:11.556Z,21.27
2022-10-01T08:25:40.750Z,22.37
2022-10-01T08:28:09.262Z,22.40
2022-10-01T08:30:42.359Z,24.40
2022-10-01T08:33:12.045Z,22.57
2022-10-01T08:35:40.351Z,21.77
2022-10-01T08:38:07.711Z,23.70
2022-10-01T08:40:41.019Z,29.10
2022-10-01T08:43:12.855Z,26.80
2022-10-01T08:45:46.157Z,30.00
2022-10-01T08:48:38.817Z,22.00
2022-10-01T08:51:17.127Z,22.87
2022-10-01T08:53:58.415Z,21.13
2022-10-01T08:56:31.164Z,22.33
2022-10-01T08:59:04.670Z,23.03
2022-10-01T09:01:31.704Z,22.87
2022-10-01T09:04:00.007Z,18.40
2022-10-01T09:06:28.040Z,18.53
2022-10-01T09:09:23.875Z,19.67
2022-10-01T09:11:57.173Z,18.57
2022-10-01T09:14:38.897Z,21.33
2022-10-01T09:17:22.045Z,19.13
2022-10-01T09:19:55.066Z,16.93
2022-10-01T09:22:41.022Z,16.63
2022-10-01T09:25:19.864Z,15.70
2022-10-01T09:27:47.044Z,15.27
2022-10-01T09:30:21.367Z,16.92
2022-10-01T09:32:53.689Z,18.05
2022-10-01T09:35:41.804Z,16.30
2022-10-01T09:38:42.248Z,14.55
2022-10-01T09:41:11.002Z,14.55
2022-10-01T09:43:40.322Z,15.27
2022-10-01T09:46:13.630Z,15.55
2022-10-01T09:48:56.958Z,15.63
2022-10-01T09:51:40.292Z,15.38
2022-10-01T09:54:19.252Z,15.05
2022-10-01T09:56:50.927Z,15.93
2022-10-01T09:59:22.683Z,15.70
2022-10-01T10:01:54.746Z,17.45
2022-10-01T10:04:25.704Z,15.68
2022-10-01T10:07:00.801Z,16.08
2022-10-01T10:09:32.892Z,11.93
2022-10-01T10:12:00.084Z,13.13
2022-10-01T10:14:36.176Z,14.20
2022-10-01T10:17:12.687Z,11.27
2022-10-01T10:19:41.222Z,14.18
2022-10-01T10:22:23.264Z,12.23
2022-10-01T10:24:50.006Z,11.18
2022-10-01T10:27:29.205Z,10.80
2022-10-01T10:30:17.290Z,10.35
2022-10-01T10:32:47.153Z,12.13
2022-10-01T10:35:19.222Z,16.83
2022-10-01T10:37:49.806Z,13.02
2022-10-01T10:40:43.056Z,10.60
2022-10-01T10:43:26.558Z,9.05
2022-10-01T10:45:57.572Z,10.63
2022-10-01T10:48:31.768Z,10.52
2022-10-01T10:51:05.040Z,10.95
2022-10-01T10:53:45.904Z,9.82
2022-10-01T10:56:22.589Z,9.25
2022-10-01T10:58:53.836Z,7.60
2022-10-01T11:01:28.760Z,9.80
2022-10-01T11:04:00.565Z,9.60
2022-10-01T11:06:27.940Z,26.98
2022-10-01T11:09:08.365Z,15.73
2022-10-01T11:11:50.107Z,10.35
2022-10-01T11:14:43.877Z,12.00
2022-10-01T11:17:40.606Z,7.45
2022-10-01T11:20:32.564Z,8.98
2022-10-01T11:23:16.892Z,7.97
2022-10-01T11:26:19.614Z,9.95
2022-10-01T11:29:21.796Z,8.73
2022-10-01T11:32:07.264Z,10.90
2022-10-01T11:35:01.078Z,8.23
2022-10-01T11:37:58.422Z,8.48
2022-10-01T11:40:33.496Z,7.97
2022-10-01T11:43:16.026Z,13.20
2022-10-01T11:45:51.969Z,8.57
2022-10-01T11:48:29.950Z,8.82
2022-10-01T11:51:04.252Z,10.85
2022-10-01T11:53:37.715Z,10.00
2022-10-01T11:56:29.994Z,10.25
2022-10-01T11:59:15.792Z,12.32
2022-10-01T12:02:02.845Z,9.82
2022-10-01T12:04:37.510Z,10.70
2022-10-01T12:07:30.061Z,9.10
2022-10-01T12:10:16.504Z,9.23
2022-10-01T12:12:52.457Z,8.98
2022-10-01T12:15:33.475Z,7.63
2022-10-01T12:18:06.505Z,8.95
2022-10-01T12:20:41.330Z,8.52
2022-10-01T12:23:14.490Z,9.18
2022-10-01T12:25:55.434Z,8.30
2022-10-01T12:28:52.009Z,9.77
2022-10-01T12:31:41.967Z,7.32
2022-10-01T12:34:11.486Z,9.80
2022-10-01T12:37:03.645Z,7.22
2022-10-01T12:39:50.260Z,10.48
2022-10-01T12:42:25.772Z,9.52
2022-10-01T12:45:29.003Z,12.13
2022-10-01T12:48:05.644Z,9.15
2022-10-01T12:51:03.016Z,11.38
2022-10-01T12:53:44.089Z,8.45
2022-10-01T12:56:30.923Z,12.15
2022-10-01T12:59:06.445Z,12.90
2022-10-01T13:02:02.694Z,11.90
2022-10-01T13:04:56.647Z,8.18
2022-10-01T13:07:49.099Z,8.90
2022-10-01T13:10:35.056Z,8.48
2022-10-01T13:13:21.530Z,7.40
2022-10-01T13:15:58.743Z,7.93
2022-10-01T13:19:07.061Z,6.90
2022-10-01T13:21:57.989Z,5.72
2022-10-01T13:24:38.122Z,5.05
2022-10-01T13:27:20.949Z,6.80
2022-10-01T13:29:56.560Z,5.72
2022-10-01T13:33:03.333Z,4.53
2022-10-01T13:35:36.152Z,4.72
2022-10-01T13:38:29.457Z,4.60
2022-10-01T13:41:01.980Z,8.02
2022-10-01T13:43:30.357Z,5.88
2022-10-01T13:46:09.815Z,4.38
2022-10-01T13:48:45.296Z,5.32
2022-10-01T13:51:13.857Z,5.25
2022-10-01T13:53:43.312Z,6.53
2022-10-01T13:56:13.306Z,5.07
2022-10-01T13:58:42.480Z,8.20
2022-10-01T14:01:24.141Z,5.55
2022-10-01T14:04:10.061Z,4.45
2022-10-01T14:06:39.282Z,9.57
2022-10-01T14:09:28.933Z,6.38
2022-10-01T14:12:21.897Z,5.18
2022-10-01T14:15:17.324Z,4.60
2022-10-01T14:17:45.591Z,4.97
2022-10-01T14:20:21.622Z,5.50
2022-10-01T14:23:06.204Z,6.72
2022-10-01T14:25:39.183Z,4.57
2022-10-01T14:28:08.901Z,2.95
2022-10-01T14:30:49.071Z,5.63
2022-10-01T14:33:40.521Z,6.68
2022-10-01T14:36:16.814Z,5.13
2022-10-01T14:38:43.576Z,6.88
2022-10-01T14:41:23.461Z,3.97
2022-10-01T14:43:50.203Z,6.60
2022-10-01T14:46:18.714Z,5.63
2022-10-01T14:48:55.994Z,6.32
2022-10-01T14:51:29.424Z,5.03
2022-10-01T14:54:00.001Z,9.63
2022-10-01T14:56:28.436Z,4.70
2022-10-01T14:59:01.741Z,8.20
2022-10-01T15:01:29.076Z,5.35
2022-10-01T15:03:56.060Z,4.80
2022-10-01T15:06:27.747Z,5.53
2022-10-01T15:09:02.334Z,6.60
2022-10-01T15:11:31.313Z,5.38
2022-10-01T15:14:04.918Z,5.85
2022-10-01T15:16:33.359Z,6.10
2022-10-01T15:19:07.065Z,5.70
2022-10-01T15:21:34.006Z,9.83
2022-10-01T15:24:04.191Z,8.53
2022-10-01T15:26:32.781Z,8.07
2022-10-01T15:29:07.080Z,7.67
2022-10-01T15:31:34.584Z,6.63
2022-10-01T15:34:04.174Z,7.40
2022-10-01T15:36:31.407Z,8.30
2022-10-01T15:38:59.270Z,9.93
2022-10-01T15:41:32.580Z,10.27
2022-10-01T15:44:03.559Z,9.90
2022-10-01T15:46:34.102Z,10.60
2022-10-01T15:49:24.630Z,14.33
2022-10-01T15:52:22.031Z,12.17
2022-10-01T15:54:58.945Z,12.60
2022-10-01T15:57:28.200Z,10.37
2022-10-01T15:59:57.762Z,11.57
2022-10-01T16:02:28.026Z,9.07
2022-10-01T16:05:02.757Z,12.10
2022-10-01T16:07:32.105Z,9.60
2022-10-01T16:10:12.084Z,9.90
2022-10-01T16:12:38.911Z,12.80
2022-10-01T16:15:23.058Z,8.50
2022-10-01T16:18:03.703Z,9.07
2022-10-01T16:20:34.228Z,8.07
2022-10-01T16:23:55.464Z,8.63
2022-10-01T16:26:37.145Z,10.13
2022-10-01T16:29:12.541Z,9.57
2022-10-01T16:31:43.397Z,11.17
2022-10-01T16:34:15.928Z,9.73
2022-10-01T16:36:44.106Z,10.93
2022-10-01T16:39:13.738Z,9.13
2022-10-01T16:41:41.005Z,12.67
2022-10-01T16:44:12.736Z,8.47
2022-10-01T16:46:39.863Z,8.90
2022-10-01T16:49:14.187Z,8.53
2022-10-01T16:51:42.408Z,8.77
2022-10-01T16:54:19.405Z,13.63
2022-10-01T16:56:46.091Z,9.43
2022-10-01T16:59:13.121Z,9.33
2022-10-01T17:01:40.011Z,8.73
2022-10-01T17:04:09.649Z,10.87
2022-10-01T17:06:36.546Z,10.10
2022-10-01T17:09:03.468Z,10.00
2022-10-01T17:11:30.251Z,10.27
2022-10-01T17:13:57.240Z,10.30
2022-10-01T17:16:24.868Z,8.53
2022-10-01T17:18:51.663Z,9.43
2022-10-01T17:21:18.354Z,10.00
2022-10-01T17:23:45.023Z,9.40
2022-10-01T17:26:11.694Z,9.47
2022-10-01T17:28:38.371Z,8.43
2022-10-01T17:31:08.662Z,9.20
2022-10-01T17:33:35.407Z,8.70
2022-10-01T17:36:06.893Z,9.23
2022-10-01T17:38:33.612Z,9.40
2022-10-01T17:41:01.000Z,13.17
2022-10-01T17:43:27.739Z,10.57
2022-10-01T17:45:59.937Z,9.40
2022-10-01T17:48:28.182Z,10.93
2022-10-01T17:51:09.103Z,10.37
2022-10-01T17:53:42.303Z,9.37
2022-10-01T17:56:14.500Z,10.93
2022-10-01T17:58:45.027Z,10.53
2022-10-01T18:01:16.057Z,10.80
2022-10-01T18:03:42.959Z,9.30
2022-10-01T18:06:13.712Z,11.57
2022-10-01T18:08:54.722Z,9.57
2022-10-01T18:11:24.110Z,11.83
2022-10-01T18:13:51.212Z,11.00
2022-10-01T18:16:19.438Z,11.70
2022-10-01T18:21:33.954Z,10.53
2022-10-01T18:24:04.459Z,12.93
2022-10-01T18:26:32.310Z,12.80
2022-10-01T18:28:59.913Z,10.33
2022-10-01T18:31:36.506Z,10.13
2022-10-01T18:34:12.202Z,8.63
2022-10-01T18:36:47.987Z,13.57
2022-10-01T18:39:37.625Z,13.47
2022-10-01T18:42:31.661Z,12.93
2022-10-01T18:45:01.398Z,16.60
2022-10-01T18:47:56.143Z,13.90
2022-10-01T18:50:35.009Z,10.50
2022-10-01T18:53:08.135Z,11.00
2022-10-01T18:56:10.451Z,8.97
2022-10-01T18:58:45.656Z,11.93
2022-10-01T19:01:31.061Z,11.50
2022-10-01T19:04:06.960Z,11.33
2022-10-01T19:06:49.066Z,13.17
2022-10-01T19:09:43.666Z,10.20
2022-10-01T19:13:02.515Z,12.23
2022-10-01T19:15:54.535Z,11.37
2022-10-01T19:18:27.095Z,9.20
2022-10-01T19:21:06.056Z,11.80
2022-10-01T19:23:38.744Z,12.40
2022-10-01T19:26:25.464Z,10.87
2022-10-01T19:29:19.839Z,9.53
2022-10-01T19:31:52.525Z,9.20
2022-10-01T19:34:32.179Z,9.20
2022-10-01T19:37:33.694Z,9.27
2022-10-01T19:40:26.297Z,10.10
2022-10-01T19:43:20.754Z,8.70
2022-10-01T19:46:00.879Z,10.87
2022-10-01T19:48:59.755Z,9.60
2022-10-01T19:51:37.383Z,10.30
2022-10-01T19:54:09.937Z,10.00
2022-10-01T19:56:38.329Z,10.07
2022-10-01T19:59:12.074Z,12.33
2022-10-01T20:01:46.290Z,12.20
2022-10-01T20:04:21.607Z,12.67
2022-10-01T20:06:48.321Z,9.93
2022-10-01T20:09:28.875Z,11.37
2022-10-01T20:12:17.126Z,10.93
2022-10-01T20:15:14.732Z,13.00
2022-10-01T20:18:28.401Z,12.80
2022-10-01T20:21:19.188Z,14.30
2022-10-01T20:24:07.616Z,9.73
2022-10-01T20:26:44.743Z,12.60
2022-10-01T20:29:43.362Z,11.53
2022-10-01T20:32:17.377Z,8.30
2022-10-01T20:35:09.490Z,15.70
2022-10-01T20:37:52.450Z,8.77
2022-10-01T20:40:28.211Z,8.90
2022-10-01T20:43:19.683Z,9.77
2022-10-01T20:45:50.003Z,8.30
2022-10-01T20:48:24.372Z,8.53
2022-10-01T20:50:54.096Z,13.57
2022-10-01T20:53:33.991Z,9.33
2022-10-01T20:56:12.269Z,10.07
2022-10-01T20:58:46.448Z,10.10
2022-10-01T21:01:20.531Z,9.43
2022-10-01T21:03:53.774Z,8.47
2022-10-01T21:06:37.360Z,11.37
2022-10-01T21:09:47.193Z,11.27
2022-10-01T21:12:22.696Z,9.40
2022-10-01T21:14:52.672Z,9.23
2022-10-01T21:17:48.290Z,8.30
2022-10-01T21:20:45.767Z,8.70
2022-10-01T21:24:06.923Z,11.27
2022-10-01T21:27:01.937Z,8.73
2022-10-01T21:30:02.175Z,7.97
2022-10-01T21:32:47.798Z,11.27
2022-10-01T21:35:20.366Z,10.40
2022-10-01T21:38:03.216Z,7.83
2022-10-01T21:41:02.739Z,8.17
2022-10-01T21:43:41.404Z,6.47
2022-10-01T21:46:39.415Z,11.87
2022-10-01T21:49:23.882Z,8.00
2022-10-01T21:51:59.493Z,7.40
2022-10-01T21:54:39.764Z,10.23
2022-10-01T21:57:34.603Z,9.73
2022-10-01T22:00:24.762Z,7.67
2022-10-01T22:03:15.070Z,7.37
2022-10-01T22:05:56.851Z,11.03
2022-10-01T22:08:47.542Z,7.97
2022-10-01T22:11:24.085Z,8.90
2022-10-01T22:13:58.942Z,6.63
2022-10-01T22:16:30.500Z,6.60
2022-10-01T22:19:05.133Z,6.17
2022-10-01T22:21:46.990Z,7.60
2022-10-01T22:24:24.805Z,6.70
2022-10-01T22:26:59.340Z,10.17
2022-10-01T22:29:29.770Z,8.73
2022-10-01T22:32:02.834Z,5.90
2022-10-01T22:34:35.570Z,7.60
2022-10-01T22:37:12.874Z,10.03
2022-10-01T22:39:48.601Z,6.93
2022-10-01T22:42:33.570Z,6.87
2022-10-01T22:45:09.108Z,7.33
2022-10-01T22:48:07.627Z,6.57
2022-10-01T22:50:53.851Z,6.60
2022-10-01T22:54:01.888Z,6.67
2022-10-01T22:56:54.091Z,7.33
2022-10-01T22:59:40.340Z,7.90
2022-10-01T23:02:23.469Z,5.83
2022-10-01T23:04:50.161Z,6.50
2022-10-01T23:07:21.029Z,6.73
2022-10-01T23:10:12.440Z,6.03
2022-10-01T23:13:01.049Z,7.10
2022-10-01T23:15:37.128Z,7.93
2022-10-01T23:18:12.480Z,9.43
2022-10-01T23:20:53.587Z,6.70
2022-10-01T23:23:25.569Z,8.97
2022-10-01T23:26:33.942Z,6.83
2022-10-01T23:29:13.702Z,6.40
2022-10-01T23:32:02.885Z,7.43
2022-10-01T23:34:50.754Z,9.23
2022-10-01T23:37:41.453Z,6.63
2022-10-01T23:40:16.607Z,7.43
2022-10-01T23:43:10.091Z,9.43
2022-10-01T23:46:01.837Z,7.03
2022-10-01T23:48:47.623Z,6.33
2022-10-01T23:51:30.865Z,10.10
2022-10-01T23:54:09.696Z,7.00
2022-10-01T23:57:09.807Z,8.57
